createdAt,value
2018-12-22T00:00:19.371Z,7.10
2018-12-22T00:02:46.118Z,1.37
2018-12-22T00:05:12.904Z,3.97
2018-12-22T00:07:39.782Z,1.13
2018-12-22T00:10:06.490Z,4.87
2018-12-22T00:12:33.169Z,4.33
2018-12-22T00:14:59.884Z,2.07
2018-12-22T00:17:26.632Z,2.30
2018-12-22T00:19:53.349Z,2.33
2018-12-22T00:22:20.169Z,2.63
2018-12-22T00:24:46.895Z,4.20
2018-12-22T00:27:13.620Z,1.00
2018-12-22T00:29:40.613Z,1.33
2018-12-22T00:32:07.352Z,1.27
2018-12-22T00:34:34.070Z,0.80
2018-12-22T00:37:00.762Z,2.13
2018-12-22T00:39:27.473Z,1.00
2018-12-22T00:41:54.166Z,1.23
2018-12-22T00:44:21.058Z,1.43
2018-12-22T00:46:47.748Z,2.80
2018-12-22T00:49:14.514Z,1.37
2018-12-22T00:51:41.329Z,1.90
2018-12-22T00:54:08.046Z,0.60
2018-12-22T00:56:34.731Z,0.90
2018-12-22T00:59:01.456Z,0.90
2018-12-22T01:01:28.137Z,0.93
2018-12-22T01:03:54.856Z,2.10
2018-12-22T01:06:21.564Z,4.63
2018-12-22T01:08:48.276Z,2.77
2018-12-22T01:11:14.968Z,0.70
2018-12-22T01:13:41.745Z,4.93
2018-12-22T01:16:08.429Z,0.93
2018-12-22T01:18:35.153Z,0.90
2018-12-22T01:21:01.845Z,0.70
2018-12-22T01:23:28.577Z,0.93
2018-12-22T01:25:55.261Z,1.10
2018-12-22T01:28:21.963Z,0.87
2018-12-22T01:30:48.664Z,0.50
2018-12-22T01:33:15.366Z,0.60
2018-12-22T01:35:42.192Z,1.37
2018-12-22T01:38:08.915Z,2.30
2018-12-22T01:40:35.633Z,1.77
2018-12-22T01:43:02.320Z,0.77
2018-12-22T01:45:29.032Z,5.43
2018-12-22T01:47:55.818Z,0.87
2018-12-22T01:50:22.534Z,0.83
2018-12-22T01:52:49.215Z,0.80
2018-12-22T01:55:16.008Z,0.70
2018-12-22T01:57:42.839Z,0.60
2018-12-22T02:00:09.547Z,0.70
2018-12-22T02:02:36.564Z,1.43
2018-12-22T02:05:04.564Z,0.67
2018-12-22T02:07:31.640Z,3.80
2018-12-22T02:09:58.545Z,1.13
2018-12-22T02:12:25.225Z,3.33
2018-12-22T02:14:52.107Z,0.70
2018-12-22T02:17:18.787Z,1.93
2018-12-22T02:19:45.604Z,0.50
2018-12-22T02:22:12.407Z,1.77
2018-12-22T02:24:39.129Z,0.70
2018-12-22T02:27:05.819Z,0.70
2018-12-22T02:29:32.523Z,0.70
2018-12-22T02:31:59.203Z,2.53
2018-12-22T02:34:25.915Z,1.47
2018-12-22T02:36:52.618Z,0.60
2018-12-22T02:39:19.343Z,0.70
2018-12-22T02:41:46.227Z,2.10
2018-12-22T02:44:13.216Z,0.57
2018-12-22T02:46:39.895Z,0.70
2018-12-22T02:49:06.614Z,0.63
2018-12-22T02:51:33.306Z,0.70
2018-12-22T02:54:00.021Z,3.40
2018-12-22T02:56:26.705Z,0.70
2018-12-22T02:58:53.728Z,3.80
2018-12-22T03:01:20.449Z,0.63
2018-12-22T03:03:47.152Z,0.70
2018-12-22T03:06:13.968Z,5.17
2018-12-22T03:08:40.687Z,0.90
2018-12-22T03:11:07.408Z,0.60
2018-12-22T03:13:34.091Z,1.07
2018-12-22T03:16:00.802Z,0.60
2018-12-22T03:18:27.479Z,1.83
2018-12-22T03:20:54.192Z,0.50
2018-12-22T03:23:20.871Z,4.13
2018-12-22T03:25:47.585Z,0.60
2018-12-22T03:28:14.331Z,0.90
2018-12-22T03:30:41.098Z,0.97
2018-12-22T03:33:07.788Z,3.20
2018-12-22T03:35:34.502Z,0.60
2018-12-22T03:38:01.194Z,2.73
2018-12-22T03:40:27.911Z,0.70
2018-12-22T03:42:54.592Z,1.77
2018-12-22T03:45:21.314Z,5.13
2018-12-22T03:47:48.007Z,0.70
2018-12-22T03:50:14.894Z,1.33
2018-12-22T03:52:41.605Z,2.83
2018-12-22T03:55:08.316Z,0.70
2018-12-22T03:57:34.995Z,0.83
2018-12-22T04:00:01.707Z,1.70
2018-12-22T04:02:28.394Z,0.60
2018-12-22T04:04:55.106Z,1.17
2018-12-22T04:07:21.783Z,0.70
2018-12-22T04:09:48.501Z,0.70
2018-12-22T04:12:15.285Z,0.60
2018-12-22T04:14:42.065Z,1.27
2018-12-22T04:17:08.747Z,1.43
2018-12-22T04:19:35.468Z,1.20
2018-12-22T04:22:02.160Z,0.60
2018-12-22T04:24:28.884Z,0.60
2018-12-22T04:26:55.568Z,5.33
2018-12-22T04:29:22.254Z,5.23
2018-12-22T04:31:50.764Z,0.60
2018-12-22T04:34:17.833Z,1.20
2018-12-22T04:36:44.684Z,0.60
2018-12-22T04:39:11.418Z,1.20
2018-12-22T04:41:38.133Z,1.10
2018-12-22T04:44:04.826Z,0.60
2018-12-22T04:46:31.538Z,0.80
2018-12-22T04:48:58.220Z,0.70
2018-12-22T04:51:25.020Z,0.60
2018-12-22T04:53:51.708Z,0.90
2018-12-22T04:56:18.478Z,4.90
2018-12-22T04:58:45.294Z,2.73
2018-12-22T05:01:12.009Z,0.60
2018-12-22T05:03:38.694Z,0.90
2018-12-22T05:06:05.412Z,2.37
2018-12-22T05:08:32.092Z,1.13
2018-12-22T05:10:58.800Z,0.60
2018-12-22T05:13:25.493Z,0.63
2018-12-22T05:15:52.209Z,0.60
2018-12-22T05:18:18.908Z,0.93
2018-12-22T05:20:45.812Z,0.50
2018-12-22T05:23:12.570Z,0.60
2018-12-22T05:25:39.292Z,2.17
2018-12-22T05:28:05.972Z,0.70
2018-12-22T05:30:32.686Z,1.27
2018-12-22T05:32:59.364Z,1.90
2018-12-22T05:35:26.085Z,1.50
2018-12-22T05:37:52.774Z,0.97
2018-12-22T05:40:19.504Z,0.70
2018-12-22T05:42:46.299Z,1.63
2018-12-22T05:45:13.018Z,3.17
2018-12-22T05:47:39.694Z,0.70
2018-12-22T05:50:06.893Z,0.63
2018-12-22T05:52:33.573Z,1.37
2018-12-22T05:55:00.279Z,0.70
2018-12-22T05:57:26.977Z,0.70
2018-12-22T06:00:00.433Z,0.70
2018-12-22T06:02:22.408Z,0.77
2018-12-22T06:04:49.170Z,0.60
2018-12-22T06:07:16.104Z,1.33
2018-12-22T06:09:42.907Z,2.20
2018-12-22T06:12:09.639Z,0.60
2018-12-22T06:14:36.327Z,2.20
2018-12-22T06:17:03.034Z,0.87
2018-12-22T06:19:29.713Z,2.50
2018-12-22T06:21:56.432Z,0.80
2018-12-22T06:24:23.120Z,0.60
2018-12-22T06:26:49.836Z,2.47
2018-12-22T06:29:16.658Z,0.60
2018-12-22T06:31:43.375Z,0.63
2018-12-22T06:34:10.056Z,0.70
2018-12-22T06:36:36.771Z,3.77
2018-12-22T06:39:04.635Z,1.00
2018-12-22T06:41:31.349Z,0.60
2018-12-22T06:43:58.026Z,0.60
2018-12-22T06:46:24.746Z,0.73
2018-12-22T06:48:51.459Z,0.70
2018-12-22T06:51:18.399Z,2.20
2018-12-22T06:53:45.216Z,0.80
2018-12-22T06:56:12.034Z,0.87
2018-12-22T06:58:39.076Z,0.67
2018-12-22T07:01:05.792Z,1.30
2018-12-22T07:03:32.480Z,1.57
2018-12-22T07:05:59.193Z,0.83
2018-12-22T07:08:25.917Z,0.60
2018-12-22T07:10:52.705Z,0.80
2018-12-22T07:13:19.463Z,1.00
2018-12-22T07:15:46.225Z,0.73
2018-12-22T07:18:12.948Z,1.70
2018-12-22T07:20:39.664Z,0.80
2018-12-22T07:23:06.365Z,0.60
2018-12-22T07:25:33.077Z,0.90
2018-12-22T07:27:59.759Z,1.10
2018-12-22T07:30:26.692Z,0.70
2018-12-22T07:32:57.110Z,1.20
2018-12-22T07:35:22.188Z,1.10
2018-12-22T07:37:48.963Z,2.53
2018-12-22T07:40:15.677Z,0.70
2018-12-22T07:42:42.448Z,2.00
2018-12-22T07:45:09.129Z,0.87
2018-12-22T07:47:35.858Z,12.83
2018-12-22T07:50:02.715Z,0.93
2018-12-22T07:52:29.428Z,1.47
2018-12-22T07:54:56.121Z,1.80
2018-12-22T07:57:22.895Z,1.03
2018-12-22T07:59:49.585Z,4.67
2018-12-22T08:02:16.350Z,6.70
2018-12-22T08:04:43.037Z,0.90
2018-12-22T08:07:09.749Z,1.80
2018-12-22T08:09:36.428Z,0.97
2018-12-22T08:12:03.147Z,4.00
2018-12-22T08:14:29.831Z,4.90
2018-12-22T08:16:56.551Z,2.43
2018-12-22T08:19:23.267Z,1.80
2018-12-22T08:21:50.016Z,2.60
2018-12-22T08:24:16.806Z,1.63
2018-12-22T08:26:43.577Z,1.30
2018-12-22T08:29:10.260Z,0.80
2018-12-22T08:31:36.973Z,2.03
2018-12-22T08:34:03.653Z,2.70
2018-12-22T08:36:30.367Z,1.43
2018-12-22T08:38:57.156Z,5.50
2018-12-22T08:41:23.965Z,2.00
2018-12-22T08:43:50.728Z,10.87
2018-12-22T08:46:17.647Z,5.53
2018-12-22T08:48:44.337Z,4.23
2018-12-22T08:51:11.057Z,5.43
2018-12-22T08:53:37.747Z,9.77
2018-12-22T08:56:04.473Z,9.03
2018-12-22T08:58:31.144Z,8.30
2018-12-22T09:00:57.987Z,7.17
2018-12-22T09:03:24.720Z,9.73
2018-12-22T09:05:51.521Z,9.03
2018-12-22T09:08:18.234Z,8.30
2018-12-22T09:10:44.988Z,6.67
2018-12-22T09:13:11.696Z,4.07
2018-12-22T09:15:38.394Z,9.80
2018-12-22T09:18:05.114Z,14.60
2018-12-22T09:20:32.427Z,9.43
2018-12-22T09:22:59.236Z,5.53
2018-12-22T09:25:25.941Z,3.63
2018-12-22T09:27:52.652Z,4.03
2018-12-22T09:30:19.497Z,11.00
2018-12-22T09:32:46.261Z,9.23
2018-12-22T09:35:12.965Z,8.53
2018-12-22T09:37:39.686Z,15.20
2018-12-22T09:40:06.456Z,7.40
2018-12-22T09:42:33.199Z,21.03
2018-12-22T09:44:59.976Z,4.83
2018-12-22T09:47:26.719Z,13.30
2018-12-22T09:49:53.419Z,7.80
2018-12-22T09:52:20.288Z,12.70
2018-12-22T09:54:46.979Z,9.60
2018-12-22T09:57:13.691Z,11.23
2018-12-22T09:59:40.381Z,10.87
2018-12-22T10:02:07.099Z,10.43
2018-12-22T10:04:33.785Z,11.73
2018-12-22T10:07:00.509Z,11.80
2018-12-22T10:09:27.193Z,2.27
2018-12-22T10:11:53.908Z,9.27
2018-12-22T10:14:20.692Z,4.40
2018-12-22T10:16:47.410Z,7.80
2018-12-22T10:19:14.094Z,10.27
2018-12-22T10:21:40.805Z,7.90
2018-12-22T10:24:07.486Z,3.27
2018-12-22T10:26:34.172Z,10.20
2018-12-22T10:29:00.889Z,8.83
2018-12-22T10:31:27.568Z,6.07
2018-12-22T10:33:54.280Z,8.97
2018-12-22T10:36:21.109Z,2.93
2018-12-22T10:38:47.861Z,11.57
2018-12-22T10:41:14.557Z,3.47
2018-12-22T10:43:41.274Z,13.23
2018-12-22T10:46:07.956Z,2.83
2018-12-22T10:48:34.666Z,6.97
2018-12-22T10:51:01.373Z,13.87
2018-12-22T10:53:28.087Z,5.20
2018-12-22T10:55:54.776Z,7.20
2018-12-22T10:58:21.652Z,8.33
2018-12-22T11:00:48.432Z,4.20
2018-12-22T11:03:15.184Z,2.50
2018-12-22T11:05:41.863Z,5.00
2018-12-22T11:08:08.572Z,7.90
2018-12-22T11:10:35.254Z,3.70
2018-12-22T11:13:01.976Z,11.90
2018-12-22T11:15:29.601Z,7.60
2018-12-22T11:17:56.512Z,4.00
2018-12-22T11:20:23.238Z,4.70
2018-12-22T11:22:50.292Z,4.47
2018-12-22T11:25:17.027Z,12.53
2018-12-22T11:27:43.741Z,2.60
2018-12-22T11:30:13.112Z,6.73
2018-12-22T11:32:39.823Z,3.63
2018-12-22T11:35:06.585Z,6.70
2018-12-22T11:37:33.410Z,10.07
2018-12-22T11:40:00.175Z,5.57
2018-12-22T11:42:26.968Z,10.63
2018-12-22T11:44:53.799Z,7.37
2018-12-22T11:47:22.571Z,9.70
2018-12-22T11:49:49.426Z,9.77
2018-12-22T11:52:16.464Z,12.00
2018-12-22T11:54:43.497Z,4.93
2018-12-22T11:57:10.328Z,3.87
2018-12-22T11:59:37.321Z,11.40
2018-12-22T12:02:09.669Z,6.60
2018-12-22T12:04:33.747Z,2.97
2018-12-22T12:07:00.727Z,12.80
2018-12-22T12:09:27.808Z,8.50
2018-12-22T12:11:54.827Z,4.93
2018-12-22T12:14:22.008Z,4.97
2018-12-22T12:16:48.732Z,7.73
2018-12-22T12:19:15.443Z,8.20
2018-12-22T12:21:42.204Z,17.20
2018-12-22T12:24:08.915Z,17.20
2018-12-22T12:26:35.615Z,29.57
2018-12-22T12:29:02.375Z,41.43
2018-12-22T12:31:29.072Z,25.90
2018-12-22T12:33:55.780Z,38.20
2018-12-22T12:36:22.469Z,33.60
2018-12-22T12:38:49.285Z,25.10
2018-12-22T12:41:16.037Z,21.30
2018-12-22T12:43:42.881Z,27.50
2018-12-22T12:46:09.564Z,19.43
2018-12-22T12:48:36.278Z,30.77
2018-12-22T12:51:02.973Z,38.83
2018-12-22T12:53:29.692Z,18.40
2018-12-22T12:55:56.379Z,25.90
2018-12-22T12:58:23.152Z,18.83
2018-12-22T13:00:49.912Z,18.47
2018-12-22T13:03:16.900Z,19.30
2018-12-22T13:05:43.827Z,22.33
2018-12-22T13:08:10.517Z,20.70
2018-12-22T13:10:37.286Z,23.67
2018-12-22T13:13:06.744Z,18.00
2018-12-22T13:15:33.526Z,15.07
2018-12-22T13:18:00.246Z,10.60
2018-12-22T13:20:27.613Z,4.87
2018-12-22T13:22:54.313Z,10.37
2018-12-22T13:25:21.029Z,18.43
2018-12-22T13:27:47.788Z,13.53
2018-12-22T13:30:14.675Z,27.83
2018-12-22T13:32:41.370Z,21.97
2018-12-22T13:35:10.856Z,13.07
2018-12-22T13:37:37.539Z,14.30
2018-12-22T13:40:08.950Z,8.27
2018-12-22T13:42:35.862Z,10.20
2018-12-22T13:45:02.857Z,22.67
2018-12-22T13:47:29.819Z,8.70
2018-12-22T13:49:56.892Z,13.77
2018-12-22T13:52:24.898Z,6.23
2018-12-22T13:54:51.678Z,18.10
2018-12-22T13:57:18.361Z,16.20
2018-12-22T13:59:45.245Z,9.20
2018-12-22T14:02:18.142Z,12.20
2018-12-22T14:04:40.680Z,13.77
2018-12-22T14:07:07.445Z,11.80
2018-12-22T14:09:34.161Z,14.60
2018-12-22T14:12:00.950Z,7.53
2018-12-22T14:14:28.132Z,13.10
2018-12-22T14:16:54.938Z,15.87
2018-12-22T14:19:22.344Z,7.93
2018-12-22T14:21:49.765Z,7.40
2018-12-22T14:24:17.862Z,11.97
2018-12-22T14:26:45.673Z,17.03
2018-12-22T14:29:12.416Z,9.73
2018-12-22T14:31:39.404Z,13.30
2018-12-22T14:34:08.961Z,8.10
2018-12-22T14:36:35.639Z,5.80
2018-12-22T14:39:02.324Z,7.23
2018-12-22T14:41:29.037Z,4.37
2018-12-22T14:43:55.744Z,11.60
2018-12-22T14:46:22.471Z,13.90
2018-12-22T14:48:49.156Z,11.60
2018-12-22T14:51:15.998Z,10.27
2018-12-22T14:53:42.686Z,6.87
2018-12-22T14:56:09.401Z,6.40
2018-12-22T14:58:36.185Z,4.73
2018-12-22T15:01:02.919Z,8.20
2018-12-22T15:03:29.824Z,6.90
2018-12-22T15:05:56.583Z,8.93
2018-12-22T15:08:23.280Z,14.97
2018-12-22T15:10:50.000Z,14.80
2018-12-22T15:13:16.769Z,10.07
2018-12-22T15:15:43.497Z,6.43
2018-12-22T15:18:10.185Z,6.80
2018-12-22T15:20:36.951Z,21.37
2018-12-22T15:23:04.430Z,14.20
2018-12-22T15:25:31.144Z,9.93
2018-12-22T15:27:57.903Z,9.67
2018-12-22T15:30:24.613Z,6.40
2018-12-22T15:32:54.761Z,10.33
2018-12-22T15:35:20.125Z,7.40
2018-12-22T15:37:46.847Z,8.40
2018-12-22T15:40:13.736Z,16.27
2018-12-22T15:42:40.463Z,14.80
2018-12-22T15:45:13.521Z,7.90
2018-12-22T15:47:40.579Z,6.23
2018-12-22T15:50:10.260Z,5.43
2018-12-22T15:52:37.173Z,5.23
2018-12-22T15:55:05.147Z,6.23
2018-12-22T15:57:31.996Z,5.23
2018-12-22T15:59:59.143Z,12.13
2018-12-22T16:02:25.981Z,6.07
2018-12-22T16:04:52.736Z,16.63
2018-12-22T16:07:19.460Z,10.40
2018-12-22T16:09:46.653Z,9.63
2018-12-22T16:12:13.493Z,5.23
2018-12-22T16:14:40.185Z,13.00
2018-12-22T16:17:06.910Z,8.83
2018-12-22T16:19:33.609Z,12.17
2018-12-22T16:22:00.328Z,8.03
2018-12-22T16:24:27.022Z,8.20
2018-12-22T16:26:53.827Z,7.87
2018-12-22T16:29:21.331Z,7.33
2018-12-22T16:31:48.100Z,6.43
2018-12-22T16:34:14.838Z,8.07
2018-12-22T16:36:41.838Z,4.43
2018-12-22T16:39:08.654Z,5.37
2018-12-22T16:41:35.379Z,4.33
2018-12-22T16:44:02.449Z,21.03
2018-12-22T16:46:29.135Z,11.53
2018-12-22T16:48:55.853Z,12.07
2018-12-22T16:51:22.662Z,4.40
2018-12-22T16:53:49.393Z,9.40
2018-12-22T16:56:16.181Z,6.70
2018-12-22T16:58:43.132Z,10.73
2018-12-22T17:01:16.644Z,7.47
2018-12-22T17:03:43.533Z,7.67
2018-12-22T17:06:10.498Z,10.80
2018-12-22T17:08:37.217Z,10.63
2018-12-22T17:11:04.082Z,11.93
2018-12-22T17:13:30.814Z,3.37
2018-12-22T17:15:57.495Z,5.10
2018-12-22T17:18:24.212Z,6.70
2018-12-22T17:20:52.969Z,3.03
2018-12-22T17:23:26.437Z,5.77
2018-12-22T17:25:53.700Z,11.53
2018-12-22T17:28:28.057Z,6.30
2018-12-22T17:30:49.265Z,12.80
2018-12-22T17:33:19.091Z,5.47
2018-12-22T17:35:44.947Z,9.83
2018-12-22T17:38:11.669Z,10.37
2018-12-22T17:40:38.358Z,4.13
2018-12-22T17:43:05.074Z,13.03
2018-12-22T17:45:31.910Z,3.83
2018-12-22T17:47:58.709Z,5.33
2018-12-22T17:50:25.404Z,6.07
2018-12-22T17:52:52.111Z,9.77
2018-12-22T17:55:18.816Z,4.20
2018-12-22T17:57:45.568Z,5.80
2018-12-22T18:00:13.546Z,5.70
2018-12-22T18:02:41.959Z,10.53
2018-12-22T18:05:08.676Z,4.57
2018-12-22T18:07:35.356Z,5.37
2018-12-22T18:10:02.161Z,17.07
2018-12-22T18:12:28.855Z,9.83
2018-12-22T18:14:55.565Z,5.03
2018-12-22T18:17:22.249Z,3.90
2018-12-22T18:19:48.952Z,7.40
2018-12-22T18:22:15.741Z,6.53
2018-12-22T18:24:42.459Z,13.93
2018-12-22T18:27:09.203Z,12.17
2018-12-22T18:29:36.004Z,3.87
2018-12-22T18:32:02.704Z,11.87
2018-12-22T18:34:30.277Z,6.60
2018-12-22T18:36:57.514Z,8.80
2018-12-22T18:39:24.855Z,8.53
2018-12-22T18:41:51.559Z,8.03
2018-12-22T18:44:18.275Z,10.77
2018-12-22T18:46:45.020Z,8.50
2018-12-22T18:49:11.729Z,8.77
2018-12-22T18:51:38.414Z,10.57
2018-12-22T18:54:05.140Z,10.83
2018-12-22T18:56:31.821Z,3.57
2018-12-22T18:58:58.546Z,10.87
2018-12-22T19:01:25.236Z,8.00
2018-12-22T19:03:51.945Z,6.17
2018-12-22T19:06:18.633Z,6.70
2018-12-22T19:08:45.453Z,8.57
2018-12-22T19:11:12.272Z,7.80
2018-12-22T19:13:38.985Z,5.03
2018-12-22T19:16:05.669Z,2.10
2018-12-22T19:18:32.399Z,5.17
2018-12-22T19:20:59.082Z,9.50
2018-12-22T19:23:25.768Z,4.40
2018-12-22T19:25:52.593Z,6.93
2018-12-22T19:28:19.295Z,4.67
2018-12-22T19:30:46.541Z,5.90
2018-12-22T19:33:13.221Z,5.73
2018-12-22T19:35:39.948Z,5.40
2018-12-22T19:38:06.628Z,6.90
2018-12-22T19:40:33.366Z,5.20
2018-12-22T19:43:00.044Z,5.70
2018-12-22T19:45:27.491Z,5.35
2018-12-22T19:47:54.240Z,4.67
2018-12-22T19:50:21.358Z,6.87
2018-12-22T19:52:48.134Z,4.03
2018-12-22T19:55:15.175Z,6.13
2018-12-22T19:57:41.892Z,5.33
2018-12-22T20:00:08.689Z,47.57
2018-12-22T20:02:35.368Z,5.13
2018-12-22T20:05:02.085Z,7.97
2018-12-22T20:07:28.781Z,15.03
2018-12-22T20:09:55.559Z,6.20
2018-12-22T20:12:22.293Z,7.80
2018-12-22T20:14:49.089Z,11.73
2018-12-22T20:17:15.861Z,8.13
2018-12-22T20:19:42.577Z,8.60
2018-12-22T20:22:09.273Z,9.07
2018-12-22T20:24:35.994Z,16.20
2018-12-22T20:27:02.698Z,8.93
2018-12-22T20:29:29.412Z,4.90
2018-12-22T20:31:56.128Z,8.43
2018-12-22T20:34:22.872Z,6.00
2018-12-22T20:36:49.709Z,7.80
2018-12-22T20:39:16.581Z,12.13
2018-12-22T20:41:43.272Z,11.70
2018-12-22T20:44:09.993Z,12.27
2018-12-22T20:46:36.693Z,11.23
2018-12-22T20:49:03.412Z,11.37
2018-12-22T20:51:30.093Z,6.20
2018-12-22T20:53:56.783Z,10.00
2018-12-22T20:56:23.499Z,8.53
2018-12-22T20:58:50.182Z,10.13
2018-12-22T21:01:17.053Z,16.30
2018-12-22T21:03:43.758Z,9.40
2018-12-22T21:06:13.323Z,15.97
2018-12-22T21:08:39.999Z,9.10
2018-12-22T21:11:06.720Z,8.93
2018-12-22T21:13:33.409Z,11.23
2018-12-22T21:16:00.127Z,7.70
2018-12-22T21:18:26.849Z,5.43
2018-12-22T21:20:53.620Z,8.97
2018-12-22T21:23:20.391Z,6.87
2018-12-22T21:25:47.384Z,4.60
2018-12-22T21:28:14.097Z,10.43
2018-12-22T21:30:40.814Z,8.57
2018-12-22T21:33:07.500Z,11.23
2018-12-22T21:35:34.221Z,8.77
2018-12-22T21:38:00.901Z,7.70
2018-12-22T21:40:27.693Z,8.93
2018-12-22T21:42:54.382Z,14.18
2018-12-22T21:45:21.190Z,11.57
2018-12-22T21:47:47.913Z,20.33
2018-12-22T21:50:14.669Z,3.80
2018-12-22T21:52:41.355Z,8.03
2018-12-22T21:55:08.092Z,9.93
2018-12-22T21:57:34.782Z,9.87
2018-12-22T22:00:01.466Z,11.70
2018-12-22T22:02:28.283Z,8.50
2018-12-22T22:04:54.998Z,5.53
2018-12-22T22:07:21.704Z,6.47
2018-12-22T22:09:48.474Z,3.87
2018-12-22T22:12:15.228Z,4.80
2018-12-22T22:14:41.917Z,14.17
2018-12-22T22:17:08.623Z,4.73
2018-12-22T22:19:35.304Z,6.73
2018-12-22T22:22:02.019Z,7.33
2018-12-22T22:24:28.696Z,4.30
2018-12-22T22:26:55.415Z,4.70
2018-12-22T22:29:22.096Z,7.20
2018-12-22T22:31:48.834Z,7.03
2018-12-22T22:34:15.556Z,4.30
2018-12-22T22:36:42.280Z,7.07
2018-12-22T22:39:08.962Z,6.30
2018-12-22T22:41:35.673Z,5.93
2018-12-22T22:44:02.354Z,5.83
2018-12-22T22:46:29.063Z,7.40
2018-12-22T22:48:55.747Z,8.40
2018-12-22T22:51:22.465Z,3.13
2018-12-22T22:53:49.178Z,4.40
2018-12-22T22:56:15.960Z,5.17
2018-12-22T22:58:42.641Z,8.30
2018-12-22T23:01:09.438Z,6.63
2018-12-22T23:03:36.494Z,7.37
2018-12-22T23:06:03.202Z,9.30
2018-12-22T23:08:29.885Z,13.40
2018-12-22T23:10:56.598Z,8.13
2018-12-22T23:13:24.725Z,5.17
2018-12-22T23:15:51.681Z,4.10
2018-12-22T23:18:18.629Z,4.83
2018-12-22T23:20:45.351Z,4.93
2018-12-22T23:23:12.039Z,5.47
2018-12-22T23:25:38.716Z,5.67
2018-12-22T23:28:05.428Z,5.60
2018-12-22T23:30:32.118Z,10.50
2018-12-22T23:32:58.837Z,4.50
2018-12-22T23:35:25.542Z,7.83
2018-12-22T23:37:52.334Z,8.20
2018-12-22T23:40:19.160Z,4.10
2018-12-22T23:42:45.875Z,8.80
2018-12-22T23:45:12.562Z,7.87
2018-12-22T23:47:39.285Z,18.30
2018-12-22T23:50:06.181Z,30.00
2018-12-22T23:52:32.892Z,3.73
2018-12-22T23:54:59.577Z,8.73
2018-12-22T23:57:26.291Z,5.97
2018-12-22T23:59:52.968Z,7.57
